sensor_id;sensor_type;location;lat;lon;timestamp;P1;durP1;ratioP1;P2;durP2;ratioP2
38940;SDS011;43236;47.208;7.518;2022-11-20T00:00:44;10.65;;;3.53;;
38940;SDS011;43236;47.208;7.518;2022-11-20T00:03:31;10.07;;;2.85;;
38940;SDS011;43236;47.208;7.518;2022-11-20T00:06:19;8.90;;;2.85;;
38940;SDS011;43236;47.208;7.518;2022-11-20T00:09:09;8.60;;;2.80;;
38940;SDS011;43236;47.208;7.518;2022-11-20T00:11:58;7.40;;;3.42;;
38940;SDS011;43236;47.208;7.518;2022-11-20T00:14:45;10.75;;;3.70;;
38940;SDS011;43236;47.208;7.518;2022-11-20T00:17:32;6.32;;;2.95;;
38940;SDS011;43236;47.208;7.518;2022-11-20T00:20:19;6.80;;;3.10;;
38940;SDS011;43236;47.208;7.518;2022-11-20T00:23:06;8.07;;;3.28;;
38940;SDS011;43236;47.208;7.518;2022-11-20T00:25:53;10.00;;;3.85;;
38940;SDS011;43236;47.208;7.518;2022-11-20T00:28:41;10.93;;;3.60;;
38940;SDS011;43236;47.208;7.518;2022-11-20T00:31:30;6.60;;;3.22;;
38940;SDS011;43236;47.208;7.518;2022-11-20T00:34:18;8.48;;;3.38;;
38940;SDS011;43236;47.208;7.518;2022-11-20T00:37:05;7.95;;;3.20;;
38940;SDS011;43236;47.208;7.518;2022-11-20T00:39:55;8.57;;;3.53;;
38940;SDS011;43236;47.208;7.518;2022-11-20T00:42:42;7.70;;;3.30;;
38940;SDS011;43236;47.208;7.518;2022-11-20T00:45:30;8.05;;;3.28;;
38940;SDS011;43236;47.208;7.518;2022-11-20T00:48:17;5.68;;;2.95;;
38940;SDS011;43236;47.208;7.518;2022-11-20T00:51:05;8.77;;;3.22;;
38940;SDS011;43236;47.208;7.518;2022-11-20T00:53:54;7.95;;;3.53;;
38940;SDS011;43236;47.208;7.518;2022-11-20T00:56:41;10.30;;;3.78;;
38940;SDS011;43236;47.208;7.518;2022-11-20T00:59:28;8.82;;;3.50;;
38940;SDS011;43236;47.208;7.518;2022-11-20T01:02:17;10.38;;;3.63;;
38940;SDS011;43236;47.208;7.518;2022-11-20T01:05:04;9.07;;;3.53;;
38940;SDS011;43236;47.208;7.518;2022-11-20T01:07:51;7.03;;;3.08;;
38940;SDS011;43236;47.208;7.518;2022-11-20T01:10:40;11.35;;;4.28;;
38940;SDS011;43236;47.208;7.518;2022-11-20T01:13:28;9.00;;;3.30;;
38940;SDS011;43236;47.208;7.518;2022-11-20T01:16:26;6.45;;;3.20;;
38940;SDS011;43236;47.208;7.518;2022-11-20T01:19:17;8.43;;;3.50;;
38940;SDS011;43236;47.208;7.518;2022-11-20T01:22:05;7.43;;;2.85;;
38940;SDS011;43236;47.208;7.518;2022-11-20T01:24:52;6.88;;;3.33;;
38940;SDS011;43236;47.208;7.518;2022-11-20T01:27:39;6.88;;;3.17;;
38940;SDS011;43236;47.208;7.518;2022-11-20T01:30:26;8.70;;;3.15;;
38940;SDS011;43236;47.208;7.518;2022-11-20T01:33:14;6.65;;;3.05;;
38940;SDS011;43236;47.208;7.518;2022-11-20T01:36:07;8.30;;;3.75;;
38940;SDS011;43236;47.208;7.518;2022-11-20T01:38:55;6.80;;;3.42;;
38940;SDS011;43236;47.208;7.518;2022-11-20T01:41:43;6.63;;;3.50;;
38940;SDS011;43236;47.208;7.518;2022-11-20T01:44:50;9.57;;;3.45;;
38940;SDS011;43236;47.208;7.518;2022-11-20T01:47:40;6.47;;;3.35;;
38940;SDS011;43236;47.208;7.518;2022-11-20T01:50:31;7.38;;;3.25;;
38940;SDS011;43236;47.208;7.518;2022-11-20T01:53:21;8.70;;;3.72;;
38940;SDS011;43236;47.208;7.518;2022-11-20T01:56:11;6.82;;;3.40;;
38940;SDS011;43236;47.208;7.518;2022-11-20T01:58:59;8.45;;;3.30;;
38940;SDS011;43236;47.208;7.518;2022-11-20T02:01:50;8.20;;;2.97;;
38940;SDS011;43236;47.208;7.518;2022-11-20T02:04:38;4.88;;;2.58;;
38940;SDS011;43236;47.208;7.518;2022-11-20T02:07:25;11.30;;;3.53;;
38940;SDS011;43236;47.208;7.518;2022-11-20T02:10:15;5.90;;;2.80;;
38940;SDS011;43236;47.208;7.518;2022-11-20T02:13:02;5.63;;;2.90;;
38940;SDS011;43236;47.208;7.518;2022-11-20T02:16:09;9.15;;;2.85;;
38940;SDS011;43236;47.208;7.518;2022-11-20T02:19:00;7.78;;;3.33;;
38940;SDS011;43236;47.208;7.518;2022-11-20T02:21:52;6.80;;;3.30;;
38940;SDS011;43236;47.208;7.518;2022-11-20T02:24:47;7.75;;;2.67;;
38940;SDS011;43236;47.208;7.518;2022-11-20T02:27:36;5.38;;;2.97;;
38940;SDS011;43236;47.208;7.518;2022-11-20T02:30:23;6.18;;;3.25;;
38940;SDS011;43236;47.208;7.518;2022-11-20T02:33:12;7.13;;;3.03;;
38940;SDS011;43236;47.208;7.518;2022-11-20T02:35:59;6.97;;;3.10;;
38940;SDS011;43236;47.208;7.518;2022-11-20T02:38:46;5.38;;;2.97;;
38940;SDS011;43236;47.208;7.518;2022-11-20T02:41:36;6.30;;;3.65;;
38940;SDS011;43236;47.208;7.518;2022-11-20T02:44:23;8.25;;;3.45;;
38940;SDS011;43236;47.208;7.518;2022-11-20T02:47:10;6.43;;;3.17;;
38940;SDS011;43236;47.208;7.518;2022-11-20T02:49:58;6.18;;;2.83;;
38940;SDS011;43236;47.208;7.518;2022-11-20T02:52:45;8.55;;;3.15;;
38940;SDS011;43236;47.208;7.518;2022-11-20T02:55:32;7.68;;;2.92;;
38940;SDS011;43236;47.208;7.518;2022-11-20T02:58:20;5.57;;;2.78;;
38940;SDS011;43236;47.208;7.518;2022-11-20T03:01:07;8.60;;;2.67;;
38940;SDS011;43236;47.208;7.518;2022-11-20T03:03:55;5.80;;;2.22;;
38940;SDS011;43236;47.208;7.518;2022-11-20T03:06:42;6.15;;;2.50;;
38940;SDS011;43236;47.208;7.518;2022-11-20T03:09:29;5.13;;;2.20;;
38940;SDS011;43236;47.208;7.518;2022-11-20T03:12:16;7.35;;;2.30;;
38940;SDS011;43236;47.208;7.518;2022-11-20T03:15:05;5.03;;;2.63;;
38940;SDS011;43236;47.208;7.518;2022-11-20T03:17:53;6.07;;;2.47;;
38940;SDS011;43236;47.208;7.518;2022-11-20T03:20:40;10.93;;;2.78;;
38940;SDS011;43236;47.208;7.518;2022-11-20T03:23:28;5.05;;;2.70;;
38940;SDS011;43236;47.208;7.518;2022-11-20T03:26:17;6.43;;;3.10;;
38940;SDS011;43236;47.208;7.518;2022-11-20T03:29:05;5.82;;;3.17;;
38940;SDS011;43236;47.208;7.518;2022-11-20T03:31:54;8.48;;;3.20;;
38940;SDS011;43236;47.208;7.518;2022-11-20T03:34:41;9.50;;;3.10;;
38940;SDS011;43236;47.208;7.518;2022-11-20T03:37:28;6.20;;;2.90;;
38940;SDS011;43236;47.208;7.518;2022-11-20T03:40:15;7.03;;;2.88;;
38940;SDS011;43236;47.208;7.518;2022-11-20T03:43:02;10.50;;;3.15;;
38940;SDS011;43236;47.208;7.518;2022-11-20T03:45:49;7.18;;;3.10;;
38940;SDS011;43236;47.208;7.518;2022-11-20T03:48:37;7.18;;;2.88;;
38940;SDS011;43236;47.208;7.518;2022-11-20T03:51:25;6.57;;;2.67;;
38940;SDS011;43236;47.208;7.518;2022-11-20T03:54:13;6.78;;;3.55;;
38940;SDS011;43236;47.208;7.518;2022-11-20T03:57:00;6.35;;;3.35;;
38940;SDS011;43236;47.208;7.518;2022-11-20T03:59:47;6.40;;;3.38;;
38940;SDS011;43236;47.208;7.518;2022-11-20T04:02:34;8.90;;;3.28;;
38940;SDS011;43236;47.208;7.518;2022-11-20T04:05:22;9.45;;;3.28;;
38940;SDS011;43236;47.208;7.518;2022-11-20T04:08:10;9.23;;;3.67;;
38940;SDS011;43236;47.208;7.518;2022-11-20T04:11:07;7.20;;;3.17;;
38940;SDS011;43236;47.208;7.518;2022-11-20T04:13:56;6.70;;;3.10;;
38940;SDS011;43236;47.208;7.518;2022-11-20T04:16:44;6.90;;;3.38;;
38940;SDS011;43236;47.208;7.518;2022-11-20T04:19:31;5.25;;;2.55;;
38940;SDS011;43236;47.208;7.518;2022-11-20T04:22:19;6.28;;;3.03;;
38940;SDS011;43236;47.208;7.518;2022-11-20T04:25:06;6.47;;;2.90;;
38940;SDS011;43236;47.208;7.518;2022-11-20T04:27:54;7.20;;;2.95;;
38940;SDS011;43236;47.208;7.518;2022-11-20T04:30:41;5.05;;;2.65;;
38940;SDS011;43236;47.208;7.518;2022-11-20T04:33:28;6.15;;;2.88;;
38940;SDS011;43236;47.208;7.518;2022-11-20T04:36:17;7.18;;;2.95;;
38940;SDS011;43236;47.208;7.518;2022-11-20T04:39:07;7.70;;;3.28;;
38940;SDS011;43236;47.208;7.518;2022-11-20T04:41:58;4.97;;;2.63;;
38940;SDS011;43236;47.208;7.518;2022-11-20T04:44:59;9.00;;;3.38;;
38940;SDS011;43236;47.208;7.518;2022-11-20T04:47:47;6.93;;;3.47;;
38940;SDS011;43236;47.208;7.518;2022-11-20T04:50:36;7.93;;;2.92;;
38940;SDS011;43236;47.208;7.518;2022-11-20T04:53:26;7.00;;;2.83;;
38940;SDS011;43236;47.208;7.518;2022-11-20T04:56:14;7.78;;;3.00;;
38940;SDS011;43236;47.208;7.518;2022-11-20T04:59:02;6.70;;;2.83;;
38940;SDS011;43236;47.208;7.518;2022-11-20T05:01:49;12.68;;;2.92;;
38940;SDS011;43236;47.208;7.518;2022-11-20T05:04:36;9.85;;;2.90;;
38940;SDS011;43236;47.208;7.518;2022-11-20T05:07:23;9.00;;;3.60;;
38940;SDS011;43236;47.208;7.518;2022-11-20T05:10:10;8.00;;;3.00;;
38940;SDS011;43236;47.208;7.518;2022-11-20T05:12:59;8.60;;;2.95;;
38940;SDS011;43236;47.208;7.518;2022-11-20T05:15:46;5.80;;;2.88;;
38940;SDS011;43236;47.208;7.518;2022-11-20T05:18:33;6.40;;;3.15;;
38940;SDS011;43236;47.208;7.518;2022-11-20T05:21:20;6.97;;;3.13;;
38940;SDS011;43236;47.208;7.518;2022-11-20T05:24:08;6.18;;;3.15;;
38940;SDS011;43236;47.208;7.518;2022-11-20T05:26:55;5.07;;;2.85;;
38940;SDS011;43236;47.208;7.518;2022-11-20T05:29:44;6.88;;;3.60;;
38940;SDS011;43236;47.208;7.518;2022-11-20T05:32:31;5.18;;;2.67;;
38940;SDS011;43236;47.208;7.518;2022-11-20T05:35:18;5.25;;;2.60;;
38940;SDS011;43236;47.208;7.518;2022-11-20T05:38:05;8.40;;;3.75;;
38940;SDS011;43236;47.208;7.518;2022-11-20T05:40:52;8.02;;;4.70;;
38940;SDS011;43236;47.208;7.518;2022-11-20T05:43:40;9.32;;;5.53;;
38940;SDS011;43236;47.208;7.518;2022-11-20T05:46:29;9.65;;;4.47;;
38940;SDS011;43236;47.208;7.518;2022-11-20T05:49:16;11.52;;;3.88;;
38940;SDS011;43236;47.208;7.518;2022-11-20T05:52:03;7.57;;;3.45;;
38940;SDS011;43236;47.208;7.518;2022-11-20T05:54:50;12.85;;;3.75;;
38940;SDS011;43236;47.208;7.518;2022-11-20T05:57:37;6.30;;;3.17;;
38940;SDS011;43236;47.208;7.518;2022-11-20T06:00:24;8.43;;;3.20;;
38940;SDS011;43236;47.208;7.518;2022-11-20T06:03:12;6.03;;;3.47;;
38940;SDS011;43236;47.208;7.518;2022-11-20T06:06:00;6.18;;;3.38;;
38940;SDS011;43236;47.208;7.518;2022-11-20T06:08:47;5.75;;;3.20;;
38940;SDS011;43236;47.208;7.518;2022-11-20T06:11:34;8.40;;;3.13;;
38940;SDS011;43236;47.208;7.518;2022-11-20T06:14:21;8.38;;;2.90;;
38940;SDS011;43236;47.208;7.518;2022-11-20T06:17:08;6.85;;;3.30;;
38940;SDS011;43236;47.208;7.518;2022-11-20T06:19:57;4.88;;;2.88;;
38940;SDS011;43236;47.208;7.518;2022-11-20T06:22:44;5.30;;;2.85;;
38940;SDS011;43236;47.208;7.518;2022-11-20T06:25:31;8.45;;;3.03;;
38940;SDS011;43236;47.208;7.518;2022-11-20T06:28:18;5.88;;;2.80;;
38940;SDS011;43236;47.208;7.518;2022-11-20T06:31:06;5.68;;;2.60;;
38940;SDS011;43236;47.208;7.518;2022-11-20T06:33:54;7.68;;;2.85;;
38940;SDS011;43236;47.208;7.518;2022-11-20T06:36:42;5.68;;;3.05;;
38940;SDS011;43236;47.208;7.518;2022-11-20T06:39:29;8.05;;;2.65;;
38940;SDS011;43236;47.208;7.518;2022-11-20T06:42:16;5.68;;;2.83;;
38940;SDS011;43236;47.208;7.518;2022-11-20T06:45:04;6.93;;;2.97;;
38940;SDS011;43236;47.208;7.518;2022-11-20T06:47:52;8.73;;;3.50;;
38940;SDS011;43236;47.208;7.518;2022-11-20T06:50:39;10.60;;;3.47;;
38940;SDS011;43236;47.208;7.518;2022-11-20T06:53:28;5.50;;;3.28;;
38940;SDS011;43236;47.208;7.518;2022-11-20T06:56:15;5.97;;;3.10;;
38940;SDS011;43236;47.208;7.518;2022-11-20T06:59:03;6.00;;;2.83;;
38940;SDS011;43236;47.208;7.518;2022-11-20T07:01:51;9.13;;;3.00;;
38940;SDS011;43236;47.208;7.518;2022-11-20T07:04:38;10.20;;;3.10;;
38940;SDS011;43236;47.208;7.518;2022-11-20T07:07:25;5.50;;;2.97;;
38940;SDS011;43236;47.208;7.518;2022-11-20T07:10:14;5.10;;;2.78;;
38940;SDS011;43236;47.208;7.518;2022-11-20T07:13:01;7.20;;;3.03;;
38940;SDS011;43236;47.208;7.518;2022-11-20T07:15:48;8.88;;;3.00;;
38940;SDS011;43236;47.208;7.518;2022-11-20T07:18:35;11.77;;;3.03;;
38940;SDS011;43236;47.208;7.518;2022-11-20T07:21:22;8.13;;;3.30;;
38940;SDS011;43236;47.208;7.518;2022-11-20T07:24:09;7.78;;;2.80;;
38940;SDS011;43236;47.208;7.518;2022-11-20T07:26:58;7.63;;;2.88;;
38940;SDS011;43236;47.208;7.518;2022-11-20T07:29:45;5.85;;;3.03;;
38940;SDS011;43236;47.208;7.518;2022-11-20T07:32:32;6.07;;;2.85;;
38940;SDS011;43236;47.208;7.518;2022-11-20T07:35:19;6.07;;;2.95;;
38940;SDS011;43236;47.208;7.518;2022-11-20T07:38:06;11.35;;;5.78;;
38940;SDS011;43236;47.208;7.518;2022-11-20T07:40:53;8.55;;;4.07;;
38940;SDS011;43236;47.208;7.518;2022-11-20T07:43:42;8.93;;;4.00;;
38940;SDS011;43236;47.208;7.518;2022-11-20T07:46:29;7.80;;;3.25;;
38940;SDS011;43236;47.208;7.518;2022-11-20T07:49:16;9.20;;;3.40;;
38940;SDS011;43236;47.208;7.518;2022-11-20T07:52:03;6.63;;;2.63;;
38940;SDS011;43236;47.208;7.518;2022-11-20T07:54:50;9.07;;;2.33;;
38940;SDS011;43236;47.208;7.518;2022-11-20T07:57:37;7.05;;;2.85;;
38940;SDS011;43236;47.208;7.518;2022-11-20T08:00:26;7.30;;;2.28;;
38940;SDS011;43236;47.208;7.518;2022-11-20T08:03:13;4.47;;;2.17;;
38940;SDS011;43236;47.208;7.518;2022-11-20T08:06:01;4.20;;;2.25;;
38940;SDS011;43236;47.208;7.518;2022-11-20T08:08:48;9.90;;;2.35;;
38940;SDS011;43236;47.208;7.518;2022-11-20T08:11:35;9.15;;;2.55;;
38940;SDS011;43236;47.208;7.518;2022-11-20T08:14:40;4.88;;;2.20;;
38940;SDS011;43236;47.208;7.518;2022-11-20T08:17:28;3.95;;;2.00;;
38940;SDS011;43236;47.208;7.518;2022-11-20T08:20:15;5.00;;;2.30;;
38940;SDS011;43236;47.208;7.518;2022-11-20T08:23:03;6.70;;;2.67;;
38940;SDS011;43236;47.208;7.518;2022-11-20T08:25:51;6.38;;;2.70;;
38940;SDS011;43236;47.208;7.518;2022-11-20T08:28:38;4.97;;;2.42;;
38940;SDS011;43236;47.208;7.518;2022-11-20T08:31:26;6.78;;;2.33;;
38940;SDS011;43236;47.208;7.518;2022-11-20T08:34:15;4.78;;;2.47;;
38940;SDS011;43236;47.208;7.518;2022-11-20T08:37:02;4.20;;;2.00;;
38940;SDS011;43236;47.208;7.518;2022-11-20T08:39:49;4.60;;;2.03;;
38940;SDS011;43236;47.208;7.518;2022-11-20T08:42:45;4.97;;;2.20;;
38940;SDS011;43236;47.208;7.518;2022-11-20T08:45:33;5.40;;;2.03;;
38940;SDS011;43236;47.208;7.518;2022-11-20T08:48:20;6.05;;;2.00;;
38940;SDS011;43236;47.208;7.518;2022-11-20T08:51:08;7.90;;;2.47;;
38940;SDS011;43236;47.208;7.518;2022-11-20T08:53:56;7.03;;;2.20;;
38940;SDS011;43236;47.208;7.518;2022-11-20T08:56:43;4.82;;;2.13;;
38940;SDS011;43236;47.208;7.518;2022-11-20T08:59:30;4.28;;;2.00;;
38940;SDS011;43236;47.208;7.518;2022-11-20T09:02:17;4.65;;;1.65;;
38940;SDS011;43236;47.208;7.518;2022-11-20T09:05:04;5.20;;;2.30;;
38940;SDS011;43236;47.208;7.518;2022-11-20T09:07:55;5.05;;;2.00;;
38940;SDS011;43236;47.208;7.518;2022-11-20T09:10:42;3.55;;;1.58;;
38940;SDS011;43236;47.208;7.518;2022-11-20T09:13:29;4.72;;;1.70;;
38940;SDS011;43236;47.208;7.518;2022-11-20T09:16:17;3.70;;;1.60;;
38940;SDS011;43236;47.208;7.518;2022-11-20T09:19:04;5.07;;;2.17;;
38940;SDS011;43236;47.208;7.518;2022-11-20T09:21:51;4.15;;;1.85;;
38940;SDS011;43236;47.208;7.518;2022-11-20T09:24:40;4.20;;;1.88;;
38940;SDS011;43236;47.208;7.518;2022-11-20T09:27:28;5.22;;;1.90;;
38940;SDS011;43236;47.208;7.518;2022-11-20T09:30:15;5.70;;;2.00;;
38940;SDS011;43236;47.208;7.518;2022-11-20T09:33:03;4.47;;;1.48;;
38940;SDS011;43236;47.208;7.518;2022-11-20T09:35:51;4.85;;;1.70;;
38940;SDS011;43236;47.208;7.518;2022-11-20T09:38:38;5.72;;;1.73;;
38940;SDS011;43236;47.208;7.518;2022-11-20T09:44:44;4.40;;;1.55;;
38940;SDS011;43236;47.208;7.518;2022-11-20T09:47:46;4.90;;;1.48;;
38940;SDS011;43236;47.208;7.518;2022-11-20T09:50:45;3.40;;;1.27;;
38940;SDS011;43236;47.208;7.518;2022-11-20T09:53:42;2.10;;;1.27;;
38940;SDS011;43236;47.208;7.518;2022-11-20T09:56:39;3.15;;;1.30;;
38940;SDS011;43236;47.208;7.518;2022-11-20T09:59:34;6.07;;;1.30;;
38940;SDS011;43236;47.208;7.518;2022-11-20T10:02:27;2.42;;;1.10;;
38940;SDS011;43236;47.208;7.518;2022-11-20T10:05:18;3.08;;;1.30;;
38940;SDS011;43236;47.208;7.518;2022-11-20T10:08:09;2.47;;;1.13;;
38940;SDS011;43236;47.208;7.518;2022-11-20T10:13:53;2.20;;;1.15;;
38940;SDS011;43236;47.208;7.518;2022-11-20T10:16:53;2.20;;;1.05;;
38940;SDS011;43236;47.208;7.518;2022-11-20T10:19:54;3.30;;;0.88;;
38940;SDS011;43236;47.208;7.518;2022-11-20T10:22:53;4.50;;;1.15;;
38940;SDS011;43236;47.208;7.518;2022-11-20T10:25:54;3.70;;;1.15;;
38940;SDS011;43236;47.208;7.518;2022-11-20T10:28:49;1.85;;;0.98;;
38940;SDS011;43236;47.208;7.518;2022-11-20T10:31:45;2.47;;;0.90;;
38940;SDS011;43236;47.208;7.518;2022-11-20T10:34:38;7.20;;;1.17;;
38940;SDS011;43236;47.208;7.518;2022-11-20T10:37:32;2.67;;;1.00;;
38940;SDS011;43236;47.208;7.518;2022-11-20T10:40:25;2.08;;;0.82;;
38940;SDS011;43236;47.208;7.518;2022-11-20T10:43:18;2.70;;;0.85;;
38940;SDS011;43236;47.208;7.518;2022-11-20T10:46:18;3.97;;;0.95;;
38940;SDS011;43236;47.208;7.518;2022-11-20T10:49:12;4.38;;;1.30;;
38940;SDS011;43236;47.208;7.518;2022-11-20T10:52:04;2.55;;;1.10;;
38940;SDS011;43236;47.208;7.518;2022-11-20T10:54:58;3.30;;;1.10;;
38940;SDS011;43236;47.208;7.518;2022-11-20T10:57:54;2.85;;;0.90;;
38940;SDS011;43236;47.208;7.518;2022-11-20T11:00:48;3.17;;;1.58;;
38940;SDS011;43236;47.208;7.518;2022-11-20T11:03:35;3.33;;;1.27;;
38940;SDS011;43236;47.208;7.518;2022-11-20T11:06:25;2.47;;;1.30;;
38940;SDS011;43236;47.208;7.518;2022-11-20T11:09:22;3.60;;;1.15;;
38940;SDS011;43236;47.208;7.518;2022-11-20T11:12:19;2.70;;;1.00;;
38940;SDS011;43236;47.208;7.518;2022-11-20T11:15:11;3.10;;;1.00;;
38940;SDS011;43236;47.208;7.518;2022-11-20T11:18:00;2.35;;;1.10;;
38940;SDS011;43236;47.208;7.518;2022-11-20T11:20:49;3.60;;;0.82;;
38940;SDS011;43236;47.208;7.518;2022-11-20T11:23:38;3.90;;;1.08;;
38940;SDS011;43236;47.208;7.518;2022-11-20T11:26:27;1.65;;;0.80;;
38940;SDS011;43236;47.208;7.518;2022-11-20T11:29:16;4.18;;;0.95;;
38940;SDS011;43236;47.208;7.518;2022-11-20T11:32:05;2.25;;;0.80;;
38940;SDS011;43236;47.208;7.518;2022-11-20T11:34:59;2.03;;;1.08;;
38940;SDS011;43236;47.208;7.518;2022-11-20T11:37:47;2.60;;;1.20;;
38940;SDS011;43236;47.208;7.518;2022-11-20T11:40:35;4.68;;;1.30;;
38940;SDS011;43236;47.208;7.518;2022-11-20T11:43:26;2.63;;;1.10;;
38940;SDS011;43236;47.208;7.518;2022-11-20T11:46:33;2.28;;;0.80;;
38940;SDS011;43236;47.208;7.518;2022-11-20T11:49:22;3.17;;;0.90;;
38940;SDS011;43236;47.208;7.518;2022-11-20T11:52:10;2.35;;;0.90;;
38940;SDS011;43236;47.208;7.518;2022-11-20T11:55:01;2.13;;;1.10;;
38940;SDS011;43236;47.208;7.518;2022-11-20T11:57:57;2.33;;;0.88;;
38940;SDS011;43236;47.208;7.518;2022-11-20T12:00:58;2.00;;;0.70;;
38940;SDS011;43236;47.208;7.518;2022-11-20T12:06:40;1.08;;;0.65;;
38940;SDS011;43236;47.208;7.518;2022-11-20T12:09:33;0.85;;;0.52;;
38940;SDS011;43236;47.208;7.518;2022-11-20T12:12:24;2.13;;;0.40;;
38940;SDS011;43236;47.208;7.518;2022-11-20T12:15:20;0.52;;;0.35;;
38940;SDS011;43236;47.208;7.518;2022-11-20T12:18:14;1.55;;;0.50;;
38940;SDS011;43236;47.208;7.518;2022-11-20T12:21:07;0.60;;;0.40;;
38940;SDS011;43236;47.208;7.518;2022-11-20T12:24:06;0.47;;;0.25;;
38940;SDS011;43236;47.208;7.518;2022-11-20T12:27:16;1.80;;;0.50;;
38940;SDS011;43236;47.208;7.518;2022-11-20T12:30:26;2.75;;;0.50;;
38940;SDS011;43236;47.208;7.518;2022-11-20T12:33:24;2.70;;;0.60;;
38940;SDS011;43236;47.208;7.518;2022-11-20T12:36:25;0.77;;;0.25;;
38940;SDS011;43236;47.208;7.518;2022-11-20T12:39:22;1.45;;;0.40;;
38940;SDS011;43236;47.208;7.518;2022-11-20T12:45:54;1.60;;;0.43;;
38940;SDS011;43236;47.208;7.518;2022-11-20T12:51:53;1.05;;;0.60;;
38940;SDS011;43236;47.208;7.518;2022-11-20T12:55:02;1.27;;;0.50;;
38940;SDS011;43236;47.208;7.518;2022-11-20T12:58:04;1.75;;;0.47;;
38940;SDS011;43236;47.208;7.518;2022-11-20T13:00:58;2.00;;;0.50;;
38940;SDS011;43236;47.208;7.518;2022-11-20T13:06:43;0.40;;;0.30;;
38940;SDS011;43236;47.208;7.518;2022-11-20T13:09:31;0.70;;;0.40;;
38940;SDS011;43236;47.208;7.518;2022-11-20T13:12:22;0.50;;;0.30;;
38940;SDS011;43236;47.208;7.518;2022-11-20T13:15:18;2.63;;;0.40;;
38940;SDS011;43236;47.208;7.518;2022-11-20T13:18:17;2.17;;;0.52;;
38940;SDS011;43236;47.208;7.518;2022-11-20T13:21:13;2.00;;;0.55;;
38940;SDS011;43236;47.208;7.518;2022-11-20T13:24:05;3.20;;;0.40;;
38940;SDS011;43236;47.208;7.518;2022-11-20T13:26:59;1.17;;;0.40;;
38940;SDS011;43236;47.208;7.518;2022-11-20T13:30:02;0.65;;;0.40;;
38940;SDS011;43236;47.208;7.518;2022-11-20T13:33:01;0.65;;;0.40;;
38940;SDS011;43236;47.208;7.518;2022-11-20T13:35:55;0.75;;;0.43;;
38940;SDS011;43236;47.208;7.518;2022-11-20T13:38:42;2.25;;;0.55;;
38940;SDS011;43236;47.208;7.518;2022-11-20T13:41:38;1.48;;;0.40;;
38940;SDS011;43236;47.208;7.518;2022-11-20T13:44:27;2.67;;;1.00;;
38940;SDS011;43236;47.208;7.518;2022-11-20T13:47:20;3.53;;;0.50;;
38940;SDS011;43236;47.208;7.518;2022-11-20T13:50:08;0.80;;;0.38;;
38940;SDS011;43236;47.208;7.518;2022-11-20T13:52:55;0.43;;;0.32;;
38940;SDS011;43236;47.208;7.518;2022-11-20T13:55:54;1.00;;;0.50;;
38940;SDS011;43236;47.208;7.518;2022-11-20T13:58:49;0.63;;;0.40;;
38940;SDS011;43236;47.208;7.518;2022-11-20T14:01:41;1.85;;;0.50;;
38940;SDS011;43236;47.208;7.518;2022-11-20T14:04:33;0.40;;;0.32;;
38940;SDS011;43236;47.208;7.518;2022-11-20T14:07:23;2.10;;;0.40;;
38940;SDS011;43236;47.208;7.518;2022-11-20T14:10:19;0.73;;;0.43;;
38940;SDS011;43236;47.208;7.518;2022-11-20T14:13:15;0.85;;;0.43;;
38940;SDS011;43236;47.208;7.518;2022-11-20T14:16:05;1.30;;;0.40;;
38940;SDS011;43236;47.208;7.518;2022-11-20T14:18:52;1.27;;;0.40;;
38940;SDS011;43236;47.208;7.518;2022-11-20T14:21:39;0.70;;;0.40;;
38940;SDS011;43236;47.208;7.518;2022-11-20T14:24:26;1.25;;;0.55;;
38940;SDS011;43236;47.208;7.518;2022-11-20T14:27:14;0.80;;;0.40;;
38940;SDS011;43236;47.208;7.518;2022-11-20T14:30:03;0.68;;;0.40;;
38940;SDS011;43236;47.208;7.518;2022-11-20T14:32:53;1.27;;;0.50;;
38940;SDS011;43236;47.208;7.518;2022-11-20T14:35:44;1.60;;;0.63;;
38940;SDS011;43236;47.208;7.518;2022-11-20T14:38:32;1.10;;;0.40;;
38940;SDS011;43236;47.208;7.518;2022-11-20T14:41:20;0.75;;;0.50;;
38940;SDS011;43236;47.208;7.518;2022-11-20T14:44:08;0.60;;;0.30;;
38940;SDS011;43236;47.208;7.518;2022-11-20T14:46:56;1.15;;;0.38;;
38940;SDS011;43236;47.208;7.518;2022-11-20T14:49:45;1.20;;;0.50;;
38940;SDS011;43236;47.208;7.518;2022-11-20T14:52:33;0.52;;;0.43;;
38940;SDS011;43236;47.208;7.518;2022-11-20T14:55:30;1.55;;;0.40;;
38940;SDS011;43236;47.208;7.518;2022-11-20T14:58:21;1.10;;;0.40;;
38940;SDS011;43236;47.208;7.518;2022-11-20T15:01:12;0.80;;;0.50;;
38940;SDS011;43236;47.208;7.518;2022-11-20T15:04:01;2.53;;;0.90;;
38940;SDS011;43236;47.208;7.518;2022-11-20T15:06:53;1.23;;;0.55;;
38940;SDS011;43236;47.208;7.518;2022-11-20T15:09:42;1.23;;;0.50;;
38940;SDS011;43236;47.208;7.518;2022-11-20T15:12:29;1.42;;;0.55;;
38940;SDS011;43236;47.208;7.518;2022-11-20T15:15:18;1.52;;;0.57;;
38940;SDS011;43236;47.208;7.518;2022-11-20T15:18:10;0.75;;;0.35;;
38940;SDS011;43236;47.208;7.518;2022-11-20T15:21:00;1.33;;;0.50;;
38940;SDS011;43236;47.208;7.518;2022-11-20T15:23:50;2.33;;;0.70;;
38940;SDS011;43236;47.208;7.518;2022-11-20T15:26:38;2.42;;;0.63;;
38940;SDS011;43236;47.208;7.518;2022-11-20T15:29:26;1.10;;;0.50;;
38940;SDS011;43236;47.208;7.518;2022-11-20T15:32:14;2.67;;;0.50;;
38940;SDS011;43236;47.208;7.518;2022-11-20T15:35:01;0.90;;;0.50;;
38940;SDS011;43236;47.208;7.518;2022-11-20T15:37:48;3.58;;;0.63;;
38940;SDS011;43236;47.208;7.518;2022-11-20T15:40:36;1.25;;;0.60;;
38940;SDS011;43236;47.208;7.518;2022-11-20T15:43:23;3.33;;;1.00;;
38940;SDS011;43236;47.208;7.518;2022-11-20T15:46:11;4.68;;;0.82;;
38940;SDS011;43236;47.208;7.518;2022-11-20T15:49:00;1.50;;;0.73;;
38940;SDS011;43236;47.208;7.518;2022-11-20T15:51:48;1.80;;;1.05;;
38940;SDS011;43236;47.208;7.518;2022-11-20T15:54:37;2.92;;;1.42;;
38940;SDS011;43236;47.208;7.518;2022-11-20T15:57:26;5.40;;;1.75;;
38940;SDS011;43236;47.208;7.518;2022-11-20T16:00:13;3.45;;;1.67;;
38940;SDS011;43236;47.208;7.518;2022-11-20T16:03:01;3.50;;;1.60;;
38940;SDS011;43236;47.208;7.518;2022-11-20T16:05:48;3.50;;;1.63;;
38940;SDS011;43236;47.208;7.518;2022-11-20T16:08:36;4.60;;;1.50;;
38940;SDS011;43236;47.208;7.518;2022-11-20T16:11:23;2.80;;;1.35;;
38940;SDS011;43236;47.208;7.518;2022-11-20T16:14:11;7.22;;;1.85;;
38940;SDS011;43236;47.208;7.518;2022-11-20T16:17:15;3.35;;;1.10;;
38940;SDS011;43236;47.208;7.518;2022-11-20T16:20:22;3.03;;;1.23;;
38940;SDS011;43236;47.208;7.518;2022-11-20T16:23:09;7.22;;;3.05;;
38940;SDS011;43236;47.208;7.518;2022-11-20T16:25:56;4.32;;;1.80;;
38940;SDS011;43236;47.208;7.518;2022-11-20T16:28:44;4.75;;;1.70;;
38940;SDS011;43236;47.208;7.518;2022-11-20T16:31:32;2.63;;;1.20;;
38940;SDS011;43236;47.208;7.518;2022-11-20T16:34:20;4.55;;;1.10;;
38940;SDS011;43236;47.208;7.518;2022-11-20T16:37:07;2.78;;;1.25;;
38940;SDS011;43236;47.208;7.518;2022-11-20T16:39:54;2.63;;;1.08;;
38940;SDS011;43236;47.208;7.518;2022-11-20T16:42:41;2.38;;;0.95;;
38940;SDS011;43236;47.208;7.518;2022-11-20T16:45:28;2.75;;;1.17;;
38940;SDS011;43236;47.208;7.518;2022-11-20T16:48:17;4.93;;;1.25;;
38940;SDS011;43236;47.208;7.518;2022-11-20T16:51:04;2.92;;;1.17;;
38940;SDS011;43236;47.208;7.518;2022-11-20T16:53:54;2.63;;;1.10;;
38940;SDS011;43236;47.208;7.518;2022-11-20T16:56:42;4.85;;;1.75;;
38940;SDS011;43236;47.208;7.518;2022-11-20T16:59:33;3.35;;;1.48;;
38940;SDS011;43236;47.208;7.518;2022-11-20T17:02:20;12.00;;;3.97;;
38940;SDS011;43236;47.208;7.518;2022-11-20T17:05:08;10.27;;;4.03;;
38940;SDS011;43236;47.208;7.518;2022-11-20T17:07:55;11.30;;;5.28;;
38940;SDS011;43236;47.208;7.518;2022-11-20T17:10:42;21.25;;;8.98;;
38940;SDS011;43236;47.208;7.518;2022-11-20T17:13:29;18.13;;;7.90;;
38940;SDS011;43236;47.208;7.518;2022-11-20T17:16:17;10.80;;;4.18;;
38940;SDS011;43236;47.208;7.518;2022-11-20T17:19:05;6.38;;;2.42;;
38940;SDS011;43236;47.208;7.518;2022-11-20T17:21:54;3.50;;;1.67;;